Time;durP1;ratioP1;P1;durP2;ratioP2;P2;SDS_P1;SDS_P2;PMS_P1;PMS_P2;Temp;Humidity;BMP_temperature;BMP_pressure;BME280_temperature;BME280_humidity;BME280_pressure;Samples;Min_cycle;Max_cycle;Signal;HPM_P1;HPM_P2
2021/11/30 00:04:51;;;;;;;37.08;21.42;;;2.90;99.90;;;;;;12249517;28;20047;-39
2021/11/30 00:10:54;;;;;;;29.90;20.10;;;2.90;99.90;;;;;;12264542;28;20047;-38
2021/11/30 00:16:57;;;;;;;32.08;21.02;;;3.00;99.90;;;;;;12255102;28;20045;-38
2021/11/30 00:22:59;;;;;;;33.92;20.77;;;3.10;99.90;;;;;;12258628;28;20561;-39
2021/11/30 00:29:01;;;;;;;26.60;18.35;;;3.10;99.90;;;;;;12258269;28;20885;-38
2021/11/30 00:35:03;;;;;;;24.02;16.25;;;3.20;99.90;;;;;;12262951;28;20047;-41
2021/11/30 00:41:06;;;;;;;21.05;14.20;;;3.30;99.90;;;;;;12263207;28;20051;-40
2021/11/30 00:47:18;;;;;;;16.23;12.52;;;3.40;99.90;;;;;;12258994;28;20051;-39
2021/11/30 00:53:20;;;;;;;18.88;11.75;;;3.40;99.90;;;;;;12261996;28;20063;-38
2021/11/30 00:59:27;;;;;;;14.73;11.13;;;3.50;99.90;;;;;;12262243;28;20083;-38
2021/11/30 01:05:30;;;;;;;14.02;10.75;;;3.50;99.90;;;;;;12258373;28;20142;-39
2021/11/30 01:11:32;;;;;;;13.45;9.32;;;3.60;99.90;;;;;;12259594;28;20059;-38
2021/11/30 01:17:35;;;;;;;13.07;8.63;;;3.50;99.90;;;;;;12255761;28;20423;-38
2021/11/30 01:23:37;;;;;;;9.20;6.72;;;3.50;99.90;;;;;;12262309;28;20492;-39
2021/11/30 01:29:39;;;;;;;9.77;6.07;;;3.50;99.90;;;;;;12240472;28;20048;-40
2021/11/30 01:35:44;;;;;;;9.02;6.53;;;3.40;99.90;;;;;;12247423;28;20101;-39
2021/11/30 01:41:46;;;;;;;9.90;7.72;;;3.40;99.90;;;;;;12265191;28;20185;-38
2021/11/30 01:47:59;;;;;;;12.02;8.55;;;3.30;99.90;;;;;;12264477;28;21005;-38
2021/11/30 01:54:01;;;;;;;13.80;9.85;;;3.40;99.90;;;;;;12267890;28;20523;-40
2021/11/30 02:00:05;;;;;;;16.15;9.27;;;3.40;99.90;;;;;;12265903;28;20517;-39
2021/11/30 02:06:07;;;;;;;12.88;8.02;;;3.50;99.90;;;;;;12269789;28;20043;-40
2021/11/30 02:12:09;;;;;;;11.75;6.30;;;3.60;99.90;;;;;;12265579;28;20055;-39
2021/11/30 02:18:20;;;;;;;11.40;6.00;;;3.70;99.90;;;;;;12264231;28;20134;-39
2021/11/30 02:24:23;;;;;;;8.13;4.90;;;3.80;99.90;;;;;;12270145;28;20678;-38
2021/11/30 02:30:25;;;;;;;11.23;3.88;;;3.70;99.90;;;;;;12260602;28;20504;-38
2021/11/30 02:36:52;;;;;;;5.40;3.20;;;3.60;99.90;;;;;;12271157;28;20059;-39
2021/11/30 02:42:54;;;;;;;6.80;3.53;;;3.50;99.90;;;;;;12267386;28;20078;-38
2021/11/30 02:48:57;;;;;;;7.30;3.55;;;3.10;99.90;;;;;;12268796;28;20495;-39
2021/11/30 02:54:59;;;;;;;9.57;4.43;;;3.10;99.90;;;;;;12265956;28;20069;-38
2021/11/30 03:01:04;;;;;;;10.88;5.38;;;2.90;99.90;;;;;;12264463;28;20130;-40
2021/11/30 03:07:12;;;;;;;7.95;5.70;;;2.80;99.90;;;;;;12265154;28;20151;-38
2021/11/30 03:13:14;;;;;;;9.45;6.18;;;2.80;99.90;;;;;;12268148;28;20055;-38
2021/11/30 03:19:17;;;;;;;9.00;6.03;;;2.80;99.90;;;;;;12269124;28;20101;-38
2021/11/30 03:25:19;;;;;;;12.82;6.70;;;2.70;99.90;;;;;;12259774;28;20455;-37
2021/11/30 03:37:41;;;;;;;12.00;5.45;;;2.50;99.90;;;;;;12270701;28;20134;-39
2021/11/30 03:43:44;;;;;;;9.93;5.97;;;2.30;99.90;;;;;;12268462;28;20055;-38
2021/11/30 03:49:46;;;;;;;11.57;6.95;;;2.30;99.90;;;;;;12264393;28;20093;-39
2021/11/30 03:55:48;;;;;;;12.75;7.03;;;2.20;99.90;;;;;;12261105;28;20059;-39
2021/11/30 04:01:50;;;;;;;16.30;8.60;;;2.10;99.90;;;;;;12266347;28;20055;-39
2021/11/30 04:07:53;;;;;;;13.48;9.68;;;2.10;99.90;;;;;;12265581;28;20423;-39
2021/11/30 04:13:55;;;;;;;20.30;11.43;;;2.10;99.90;;;;;;12246502;28;20093;-39
2021/11/30 04:19:57;;;;;;;14.95;10.52;;;2.00;99.90;;;;;;12260826;28;20062;-39
2021/11/30 04:25:59;;;;;;;16.00;10.52;;;1.90;99.90;;;;;;12262958;28;20047;-39
2021/11/30 04:32:02;;;;;;;16.83;10.75;;;1.80;99.90;;;;;;12266848;28;20050;-39
2021/11/30 04:38:04;;;;;;;16.77;9.95;;;1.80;99.90;;;;;;12250283;28;20051;-40
2021/11/30 04:44:07;;;;;;;11.88;8.68;;;1.80;99.90;;;;;;12251608;28;20047;-40
2021/11/30 04:50:34;;;;;;;12.95;8.38;;;1.80;99.90;;;;;;12266658;28;20644;-39
2021/11/30 04:56:37;;;;;;;11.90;7.38;;;1.80;99.90;;;;;;12239533;28;20063;-38
2021/11/30 05:02:43;;;;;;;10.95;7.55;;;1.90;99.90;;;;;;12219348;29;20107;-38
2021/11/30 05:08:46;;;;;;;11.18;8.02;;;1.90;99.90;;;;;;12227046;29;20137;-38
2021/11/30 05:14:48;;;;;;;10.45;7.05;;;1.90;99.90;;;;;;12207714;29;20424;-38
2021/11/30 05:20:54;;;;;;;11.95;7.43;;;2.00;99.90;;;;;;12217670;29;20107;-39
2021/11/30 05:26:57;;;;;;;10.88;7.30;;;2.00;99.90;;;;;;12222391;29;20059;-39
2021/11/30 05:32:58;;;;;;;8.98;6.93;;;2.10;99.90;;;;;;12226323;29;20087;-37
2021/11/30 05:39:03;;;;;;;11.85;7.55;;;2.20;99.90;;;;;;12220094;29;20356;-37
2021/11/30 05:45:08;;;;;;;9.88;7.32;;;2.20;99.90;;;;;;12220528;29;20114;-38
2021/11/30 05:51:10;;;;;;;10.85;8.05;;;2.30;99.90;;;;;;12222340;29;20039;-39
2021/11/30 05:57:18;;;;;;;10.68;7.88;;;2.40;99.90;;;;;;12250860;28;20063;-38
2021/11/30 06:03:32;;;;;;;9.70;7.72;;;2.40;99.90;;;;;;12270721;28;20131;-38
2021/11/30 06:09:36;;;;;;;11.05;8.63;;;2.50;99.90;;;;;;12267009;28;20097;-39
2021/11/30 06:15:39;;;;;;;10.43;8.02;;;2.50;99.90;;;;;;12271319;28;20051;-39
2021/11/30 06:21:44;;;;;;;9.50;7.82;;;2.60;99.90;;;;;;12270271;28;20130;-39
2021/11/30 06:27:47;;;;;;;12.25;7.75;;;2.70;99.90;;;;;;12271842;28;20578;-40
2021/11/30 06:33:49;;;;;;;11.48;8.70;;;2.80;99.90;;;;;;12274518;28;20089;-39
2021/11/30 06:39:53;;;;;;;9.65;7.88;;;2.80;99.90;;;;;;12272195;28;20589;-38
2021/11/30 06:45:56;;;;;;;12.23;8.82;;;2.90;99.90;;;;;;12265608;28;20051;-39
2021/11/30 06:51:58;;;;;;;11.85;9.27;;;2.90;99.90;;;;;;12271190;28;20075;-38
2021/11/30 06:58:00;;;;;;;13.13;9.65;;;3.10;99.90;;;;;;12277635;28;20054;-40
2021/11/30 07:04:03;;;;;;;13.27;10.02;;;3.30;99.90;;;;;;12259830;28;20054;-40
2021/11/30 07:16:08;;;;;;;13.80;10.95;;;3.40;99.90;;;;;;12262146;28;20059;-40
2021/11/30 07:22:14;;;;;;;15.15;11.48;;;3.50;99.90;;;;;;12262300;28;20093;-39
2021/11/30 07:28:25;;;;;;;15.18;12.10;;;3.70;99.90;;;;;;12262118;28;20078;-41
2021/11/30 07:34:29;;;;;;;18.65;12.50;;;3.80;99.90;;;;;;12267135;28;20385;-39
2021/11/30 07:40:31;;;;;;;16.02;12.10;;;4.00;99.90;;;;;;12270449;28;20489;-38
2021/11/30 07:46:35;;;;;;;15.68;12.23;;;4.10;99.90;;;;;;12264129;28;20055;-40
2021/11/30 07:52:43;;;;;;;15.20;11.38;;;4.20;99.90;;;;;;12263667;28;20055;-39
2021/11/30 07:58:46;;;;;;;13.68;10.15;;;4.30;99.90;;;;;;12263256;28;20062;-39
2021/11/30 08:04:49;;;;;;;11.90;7.78;;;4.40;99.90;;;;;;12266584;28;20147;-38
2021/11/30 08:10:54;;;;;;;9.32;7.28;;;4.60;99.90;;;;;;12262466;28;20047;-38
2021/11/30 08:16:57;;;;;;;10.23;7.53;;;4.70;99.90;;;;;;12263282;28;20066;-40
2021/11/30 08:23:00;;;;;;;8.80;6.75;;;4.80;99.90;;;;;;12262955;28;20047;-40
2021/11/30 08:29:02;;;;;;;9.45;6.50;;;4.90;99.90;;;;;;12263322;28;20062;-39
2021/11/30 08:35:05;;;;;;;6.85;4.95;;;4.90;99.90;;;;;;12263968;28;20055;-38
2021/11/30 08:41:09;;;;;;;7.63;5.57;;;4.90;99.90;;;;;;12264772;28;20066;-38
2021/11/30 08:47:13;;;;;;;8.07;5.40;;;4.90;99.90;;;;;;12264919;28;20099;-39
2021/11/30 08:53:17;;;;;;;5.93;4.32;;;4.90;99.90;;;;;;12266682;28;20392;-39
2021/11/30 08:59:20;;;;;;;5.80;4.33;;;5.00;99.90;;;;;;12265699;28;20066;-38
2021/11/30 09:05:23;;;;;;;5.80;3.75;;;5.10;99.90;;;;;;12263444;28;20052;-39
2021/11/30 09:11:27;;;;;;;6.75;4.05;;;5.10;99.90;;;;;;12261933;28;20058;-40
2021/11/30 09:17:31;;;;;;;5.55;3.33;;;5.20;99.90;;;;;;12263177;28;20143;-40
2021/11/30 09:23:33;;;;;;;5.32;3.50;;;5.30;99.90;;;;;;12263570;28;20055;-40
2021/11/30 09:29:35;;;;;;;4.50;2.83;;;5.40;99.90;;;;;;12262557;28;20133;-38
2021/11/30 09:35:37;;;;;;;4.07;2.80;;;5.60;99.90;;;;;;12266737;28;20063;-38
2021/11/30 09:41:40;;;;;;;4.40;2.95;;;5.70;99.90;;;;;;12262017;28;20566;-39
2021/11/30 09:47:44;;;;;;;3.72;2.60;;;5.80;99.90;;;;;;12260553;28;20047;-39
2021/11/30 09:53:47;;;;;;;3.22;2.00;;;5.90;99.90;;;;;;12261839;28;20110;-39
2021/11/30 09:59:50;;;;;;;5.53;2.55;;;6.00;99.90;;;;;;12264613;28;20094;-38
2021/11/30 10:05:55;;;;;;;4.90;2.60;;;6.10;99.90;;;;;;12265718;28;20050;-40
2021/11/30 10:12:00;;;;;;;4.63;2.45;;;6.30;99.90;;;;;;12268974;28;20059;-39
2021/11/30 10:18:26;;;;;;;6.10;2.08;;;6.40;99.90;;;;;;12253786;28;20147;-38
2021/11/30 10:24:29;;;;;;;7.75;2.00;;;6.50;99.90;;;;;;12266679;28;20094;-39
2021/11/30 10:30:34;;;;;;;7.47;1.70;;;6.80;99.90;;;;;;12270196;28;20055;-38
2021/11/30 10:36:52;;;;;;;6.10;1.50;;;6.90;99.90;;;;;;12266580;28;20125;-40
2021/11/30 10:43:07;;;;;;;7.03;1.67;;;6.90;99.90;;;;;;12260496;28;20554;-38
2021/11/30 10:49:13;;;;;;;8.15;1.90;;;7.00;99.90;;;;;;12275413;28;20043;-40
2021/11/30 10:55:18;;;;;;;3.63;1.25;;;7.00;99.90;;;;;;12261898;28;20079;-41
2021/11/30 11:01:28;;;;;;;5.85;1.38;;;7.10;99.90;;;;;;12238988;28;20054;-40
2021/11/30 11:07:31;;;;;;;7.25;1.73;;;7.20;99.90;;;;;;12263273;28;20564;-40
2021/11/30 11:13:48;;;;;;;8.80;1.42;;;7.20;99.90;;;;;;12270573;28;20055;-38
2021/11/30 11:20:03;;;;;;;7.97;1.70;;;7.20;99.90;;;;;;12273135;28;20476;-38
2021/11/30 11:26:21;;;;;;;7.32;1.92;;;7.10;99.90;;;;;;12253140;28;20416;-40
2021/11/30 11:32:32;;;;;;;6.23;1.77;;;7.10;99.90;;;;;;12261245;28;20059;-39
2021/11/30 11:38:47;;;;;;;7.33;1.87;;;7.10;99.90;;;;;;12283840;28;20134;-39
2021/11/30 11:45:01;;;;;;;8.85;1.90;;;7.10;99.90;;;;;;12268263;28;20514;-40
2021/11/30 11:51:23;;;;;;;14.25;1.80;;;7.20;99.90;;;;;;12263556;28;20054;-38
2021/11/30 11:57:38;;;;;;;7.63;1.20;;;7.20;99.90;;;;;;12279712;28;20078;-40
2021/11/30 12:04:03;;;;;;;5.53;1.30;;;7.20;99.90;;;;;;12270010;28;20098;-39
2021/11/30 12:10:26;;;;;;;6.07;0.80;;;7.10;99.90;;;;;;12252706;28;20138;-38
2021/11/30 12:17:07;;;;;;;9.88;1.45;;;7.10;99.90;;;;;;12249275;28;20060;-40
2021/11/30 12:23:47;;;;;;;7.07;1.20;;;7.00;99.90;;;;;;12454644;27;6728671;-39
2021/11/30 12:29:57;;;;;;;10.27;1.48;;;6.90;99.90;;;;;;12669432;28;20056;-40
2021/11/30 12:36:13;;;;;;;4.38;1.05;;;6.90;99.90;;;;;;12553032;28;20505;-38
2021/11/30 12:42:34;;;;;;;11.25;1.85;;;6.80;99.90;;;;;;12553185;28;20045;-38
2021/11/30 12:48:56;;;;;;;8.77;1.40;;;6.80;99.90;;;;;;12564828;28;20072;-38
2021/11/30 12:55:16;;;;;;;7.00;1.30;;;6.80;99.90;;;;;;12504451;28;20050;-37
2021/11/30 13:01:34;;;;;;;7.93;1.38;;;7.10;99.90;;;;;;12498748;28;20041;-38
2021/11/30 13:07:51;;;;;;;7.63;1.25;;;7.20;99.90;;;;;;12501885;28;20060;-39
2021/11/30 13:14:07;;;;;;;11.27;1.52;;;7.30;99.90;;;;;;12500636;28;20056;-38
2021/11/30 13:20:17;;;;;;;7.63;2.38;;;7.30;99.90;;;;;;12497488;28;20059;-36
2021/11/30 13:26:23;;;;;;;12.48;1.60;;;7.30;99.90;;;;;;12546393;28;20152;-39
2021/11/30 13:32:41;;;;;;;13.77;2.33;;;7.30;99.90;;;;;;12532349;28;20049;-39
2021/11/30 13:38:49;;;;;;;14.73;2.83;;;7.30;99.90;;;;;;12518575;28;20045;-39
2021/11/30 13:44:54;;;;;;;11.85;1.52;;;7.20;99.90;;;;;;12514730;28;20064;-38
2021/11/30 13:51:09;;;;;;;10.55;1.52;;;7.20;99.90;;;;;;12517783;28;20091;-38
2021/11/30 13:57:24;;;;;;;9.70;1.67;;;7.20;99.90;;;;;;12520891;28;20053;-39
2021/11/30 14:03:43;;;;;;;7.22;1.40;;;7.10;99.90;;;;;;12518005;28;20056;-39
2021/11/30 14:09:58;;;;;;;8.55;1.45;;;6.90;99.90;;;;;;12520505;28;20111;-40
2021/11/30 14:16:07;;;;;;;14.52;1.70;;;6.90;99.90;;;;;;12513762;28;20163;-38
2021/11/30 14:22:28;;;;;;;10.50;1.55;;;6.80;99.90;;;;;;12472244;28;20099;-38
2021/11/30 14:28:33;;;;;;;13.10;1.67;;;6.80;99.90;;;;;;12463005;28;20148;-39
2021/11/30 14:34:45;;;;;;;15.70;2.40;;;6.70;99.90;;;;;;12459270;28;20045;-40
2021/11/30 14:41:14;;;;;;;10.23;1.90;;;6.80;99.90;;;;;;12468266;28;20068;-39
2021/11/30 14:47:20;;;;;;;14.30;2.33;;;6.70;99.90;;;;;;12452262;28;20307;-39
2021/11/30 14:53:32;;;;;;;13.85;2.80;;;6.80;99.90;;;;;;12456056;28;20099;-38
2021/11/30 14:59:45;;;;;;;11.20;2.03;;;6.70;99.90;;;;;;12459989;28;20479;-39
2021/11/30 15:06:17;;;;;;;10.30;1.83;;;6.70;99.90;;;;;;12458730;28;20080;-38
2021/11/30 15:12:30;;;;;;;13.50;2.50;;;6.60;99.90;;;;;;12445272;28;20513;-40
2021/11/30 15:18:37;;;;;;;11.05;2.45;;;6.60;99.90;;;;;;12443216;28;20187;-40
2021/11/30 15:24:49;;;;;;;14.27;2.53;;;6.60;99.90;;;;;;12497522;28;20056;-38
2021/11/30 15:30:57;;;;;;;19.55;3.03;;;6.50;99.90;;;;;;12508698;28;20071;-38
2021/11/30 15:37:08;;;;;;;14.68;2.03;;;6.50;99.90;;;;;;12513344;28;20433;-39
2021/11/30 15:43:17;;;;;;;10.45;1.63;;;6.50;99.90;;;;;;12500985;28;20053;-38
2021/11/30 15:49:20;;;;;;;18.38;2.53;;;6.50;99.90;;;;;;12499681;28;20056;-40
2021/11/30 15:55:31;;;;;;;12.10;1.90;;;6.40;99.90;;;;;;12486687;28;20057;-39
2021/11/30 16:01:35;;;;;;;13.40;1.80;;;6.40;99.90;;;;;;12499762;28;20136;-38
2021/11/30 16:07:45;;;;;;;9.60;1.98;;;6.40;99.90;;;;;;12500309;28;20119;-39
2021/11/30 16:13:49;;;;;;;16.38;2.30;;;6.50;99.90;;;;;;12481968;28;20528;-38
2021/11/30 16:19:52;;;;;;;11.43;2.42;;;6.40;99.90;;;;;;12475465;28;20053;-39
2021/11/30 16:25:55;;;;;;;14.40;1.75;;;6.40;99.90;;;;;;12447489;28;20056;-38
2021/11/30 16:31:58;;;;;;;12.88;2.40;;;6.30;99.90;;;;;;12447250;28;20046;-39
2021/11/30 16:38:07;;;;;;;12.75;2.33;;;6.30;99.90;;;;;;12426736;28;20325;-39
2021/11/30 16:44:13;;;;;;;10.38;1.85;;;6.30;99.90;;;;;;12450976;28;20561;-38
2021/11/30 16:50:18;;;;;;;17.83;2.42;;;6.30;99.90;;;;;;12456816;28;20091;-38
2021/11/30 16:56:23;;;;;;;14.90;2.15;;;6.30;99.90;;;;;;12434639;28;20067;-38
2021/11/30 17:02:29;;;;;;;14.68;2.13;;;6.30;99.90;;;;;;12444512;28;20103;-38
2021/11/30 17:08:31;;;;;;;13.13;1.90;;;6.30;99.90;;;;;;12463307;28;20521;-39
2021/11/30 17:14:35;;;;;;;12.18;1.95;;;6.30;99.90;;;;;;12457177;28;20129;-39
2021/11/30 17:20:42;;;;;;;11.02;2.45;;;6.20;99.90;;;;;;12478272;28;21032;-37
2021/11/30 17:26:49;;;;;;;10.27;2.22;;;6.20;99.90;;;;;;12511038;28;20064;-39
2021/11/30 17:32:54;;;;;;;9.98;1.80;;;6.20;99.90;;;;;;12507256;28;20145;-39
2021/11/30 17:38:57;;;;;;;9.10;2.05;;;6.20;99.90;;;;;;12508795;28;20045;-38
2021/11/30 17:44:59;;;;;;;10.55;2.20;;;6.10;99.90;;;;;;12507554;28;20068;-39
2021/11/30 17:51:05;;;;;;;10.18;1.83;;;6.10;99.90;;;;;;12513358;28;20058;-40
2021/11/30 17:57:10;;;;;;;13.13;2.63;;;6.10;99.90;;;;;;12510259;28;20056;-39
2021/11/30 18:03:14;;;;;;;12.52;2.40;;;6.10;99.90;;;;;;12505654;28;20140;-39
2021/11/30 18:09:17;;;;;;;10.18;2.38;;;6.10;99.90;;;;;;12504092;28;20041;-39
2021/11/30 18:15:24;;;;;;;13.17;2.70;;;6.10;99.90;;;;;;12498680;28;20053;-38
2021/11/30 18:21:29;;;;;;;10.00;2.75;;;6.10;99.90;;;;;;12505327;28;20064;-39
2021/11/30 18:27:32;;;;;;;11.05;2.83;;;6.10;99.90;;;;;;12500475;28;20242;-38
2021/11/30 18:33:39;;;;;;;12.70;3.30;;;6.10;99.90;;;;;;12496162;28;20132;-38
2021/11/30 18:39:43;;;;;;;20.20;4.03;;;6.20;99.90;;;;;;12502765;28;20508;-38
2021/11/30 18:45:46;;;;;;;13.52;3.55;;;6.20;99.90;;;;;;12497672;28;20057;-38
2021/11/30 18:52:00;;;;;;;18.60;4.05;;;6.20;99.90;;;;;;12500105;28;20158;-39
2021/11/30 18:58:04;;;;;;;10.05;3.00;;;6.10;99.90;;;;;;12506047;28;20156;-38
2021/11/30 19:04:07;;;;;;;12.55;3.45;;;6.00;99.90;;;;;;12502871;28;20481;-39
2021/11/30 19:10:09;;;;;;;20.77;4.40;;;6.10;99.90;;;;;;12502003;28;20399;-39
2021/11/30 19:16:19;;;;;;;13.57;3.80;;;6.10;99.90;;;;;;12500192;28;20083;-38
2021/11/30 19:22:22;;;;;;;13.55;3.70;;;6.10;99.90;;;;;;12498387;28;20057;-38
2021/11/30 19:28:24;;;;;;;13.20;3.42;;;6.20;99.90;;;;;;12500789;28;20176;-38
2021/11/30 19:34:29;;;;;;;11.65;3.05;;;6.10;99.90;;;;;;12499228;28;20049;-39
2021/11/30 19:40:39;;;;;;;13.23;3.30;;;6.10;99.90;;;;;;12500728;28;20045;-39
2021/11/30 19:46:41;;;;;;;9.57;3.08;;;6.00;99.90;;;;;;12497082;28;20140;-41
2021/11/30 19:52:44;;;;;;;15.82;3.97;;;6.00;99.90;;;;;;12498793;28;20168;-39
2021/11/30 19:58:47;;;;;;;14.25;3.80;;;6.00;99.90;;;;;;12501167;28;20088;-40
2021/11/30 20:11:11;;;;;;;8.80;2.60;;;5.80;99.90;;;;;;12500789;28;20048;-39
2021/11/30 20:17:20;;;;;;;13.52;3.38;;;5.80;99.90;;;;;;12499820;28;20053;-38
2021/11/30 20:23:24;;;;;;;6.85;2.78;;;5.80;99.90;;;;;;12496844;28;20445;-38
2021/11/30 20:29:36;;;;;;;12.00;3.50;;;5.90;99.90;;;;;;12498251;28;20049;-37
2021/11/30 20:41:48;;;;;;;13.52;4.40;;;5.90;99.90;;;;;;12493879;28;20061;-38
2021/11/30 20:47:51;;;;;;;12.80;4.63;;;6.00;99.90;;;;;;12503212;28;20058;-37
2021/11/30 20:54:00;;;;;;;;;;;6.00;99.90;;;;;;12509652;28;20141;-39
2021/11/30 21:00:08;;;;;;;15.80;4.88;;;5.90;99.90;;;;;;12507273;28;19981;-39
2021/11/30 21:06:11;;;;;;;15.10;5.25;;;5.90;99.90;;;;;;12510860;28;20060;-38
2021/11/30 21:12:13;;;;;;;13.07;5.45;;;5.90;99.90;;;;;;12506358;28;20060;-39
2021/11/30 21:18:16;;;;;;;13.13;6.00;;;6.00;99.90;;;;;;12506675;28;20401;-39
2021/11/30 21:24:23;;;;;;;16.00;6.97;;;6.00;99.90;;;;;;12503060;28;20059;-39
2021/11/30 21:30:26;;;;;;;16.35;7.93;;;6.00;99.90;;;;;;12501129;28;20057;-39
2021/11/30 21:36:28;;;;;;;16.02;7.70;;;6.10;99.90;;;;;;12502366;28;20052;-39
2021/11/30 21:42:32;;;;;;;14.38;7.70;;;6.10;99.90;;;;;;12507649;28;20049;-38
2021/11/30 21:48:34;;;;;;;16.90;8.05;;;6.10;99.90;;;;;;12504743;28;20060;-39
2021/11/30 21:54:38;;;;;;;18.40;8.68;;;6.10;99.90;;;;;;12501549;28;20063;-39
2021/11/30 22:00:40;;;;;;;20.38;8.88;;;6.20;99.90;;;;;;12501809;28;20841;-38
2021/11/30 22:06:43;;;;;;;18.00;9.10;;;6.20;99.90;;;;;;12507431;28;21016;-38
2021/11/30 22:12:47;;;;;;;17.15;9.13;;;6.20;99.90;;;;;;12506016;28;20061;-38
2021/11/30 22:18:51;;;;;;;18.23;8.90;;;6.20;99.90;;;;;;12502686;28;20167;-39
2021/11/30 22:24:53;;;;;;;16.10;8.45;;;6.20;99.90;;;;;;12498217;28;20042;-38
2021/11/30 22:30:56;;;;;;;16.20;8.52;;;6.10;99.90;;;;;;12502785;28;20111;-39
2021/11/30 22:36:58;;;;;;;18.05;9.73;;;6.10;99.90;;;;;;12501646;28;20046;-38
2021/11/30 22:43:00;;;;;;;21.67;10.68;;;6.20;99.90;;;;;;12496184;28;20098;-38
2021/11/30 22:49:05;;;;;;;17.73;10.93;;;6.20;99.90;;;;;;12501075;28;20106;-38
2021/11/30 22:55:09;;;;;;;27.77;12.38;;;6.20;99.90;;;;;;12509511;28;20052;-37
2021/11/30 23:01:11;;;;;;;23.75;13.18;;;6.30;99.90;;;;;;12492989;28;20053;-40
2021/11/30 23:07:21;;;;;;;24.00;13.40;;;6.30;99.90;;;;;;12501246;28;20057;-38
2021/11/30 23:13:26;;;;;;;21.92;13.50;;;6.30;99.90;;;;;;12500069;28;20046;-38
2021/11/30 23:19:32;;;;;;;25.95;13.48;;;6.20;99.90;;;;;;12497755;28;20050;-38
2021/11/30 23:31:56;;;;;;;21.35;12.20;;;6.20;99.90;;;;;;12498314;28;20057;-39
2021/11/30 23:38:07;;;;;;;21.27;11.60;;;6.30;99.90;;;;;;12496614;28;20413;-39
2021/11/30 23:44:15;;;;;;;16.58;9.50;;;6.30;99.90;;;;;;12499650;28;20053;-40
2021/11/30 23:50:17;;;;;;;20.27;9.15;;;6.30;99.90;;;;;;12497354;28;20481;-38
2021/11/30 23:56:19;;;;;;;13.70;8.43;;;6.30;99.90;;;;;;12496849;28;20076;-38
